Conch Key, Florida
Current Conditions -  °F | °C
As of 8:53 AM on Friday 31 Oct 2014 (Local Time) from KMTH Reporting Station
Clear Clear  
Wind Chill: 78°   Ceiling: Unl
Heat Index: 80°   Visibility: 10mi
Dew Point: 70°   Wind: 5mph
Humidity: 76%   Direction: 270°W
Pressure: 29.89"   Gusts: NA
Location:  24.8241°N, 80.818°W
Report Text: KMTH 311253Z AUTO 27004KT 10SM CLR 26/21 A2989 RMK AO2 SLP120 T02560211
Loading
Personal Weather Stations






























Interactive Weather Map
Tropical Storm Tracking
New forecast layout! Learn more

10-Day Weather Forecast

Advertisements
Track Severe Weather on mobile